Aviation Digital Data Service (ADDS)

Output produced by METARs form (1402 UTC 24 August 2019)
found at http://www.aviationweather.gov/metar/data/
 
METAR text: KSLC 241354Z 14006KT 10SM FEW150 SCT220 21/07 A3003 RMK AO2 SLP115 ACSL DSNT SE T02060072
Conditions at: KSLC (SALT LAKE CITY , UT, US) observed 1354 UTC 24 August 2019
Temperature: 20.6°C (69°F)
Dewpoint: 7.2°C (45°F) [RH = 42%]
Pressure (altimeter): 30.03 inches Hg (1017.0 mb)
[Sea-level pressure: 1011.5 mb]
Winds: from the SE (140 degrees) at 7 MPH (6 knots; 3.1 m/s)
Visibility: 10 or more miles (16+ km)
Ceiling: at least 12,000 feet AGL
Clouds: few clouds at 15000 feet AGL
scattered clouds at 22000 feet AGL
Weather: no significant weather observed at this time

METAR text: KSLC 241254Z 14007KT 10SM FEW150 BKN220 18/05 A3001 RMK AO2 SLP111 T01830050
Conditions at: KSLC (SALT LAKE CITY , UT, US) observed 1254 UTC 24 August 2019
Temperature: 18.3°C (65°F)
Dewpoint: 5.0°C (41°F) [RH = 41%]
Pressure (altimeter): 30.01 inches Hg (1016.3 mb)
[Sea-level pressure: 1011.1 mb]
Winds: from the SE (140 degrees) at 8 MPH (7 knots; 3.6 m/s)
Visibility: 10 or more miles (16+ km)
Ceiling: 22000 feet AGL
Clouds: few clouds at 15000 feet AGL
broken clouds at 22000 feet AGL
Weather: no significant weather observed at this time

METAR text: KSLC 241154Z 14007KT 10SM FEW150 18/05 A3001 RMK AO2 SLP107 T01830050 10222 20178 53005
Conditions at: KSLC (SALT LAKE CITY , UT, US) observed 1154 UTC 24 August 2019
Temperature: 18.3°C (65°F)
Dewpoint: 5.0°C (41°F) [RH = 41%]
Pressure (altimeter): 30.01 inches Hg (1016.3 mb)
[Sea-level pressure: 1010.7 mb]
Winds: from the SE (140 degrees) at 8 MPH (7 knots; 3.6 m/s)
Visibility: 10 or more miles (16+ km)
Ceiling: at least 12,000 feet AGL
Clouds: few clouds at 15000 feet AGL
Weather: no significant weather observed at this time

METAR text: KSLC 241054Z 13007KT 10SM CLR 19/06 A2999 RMK AO2 SLP101 T01890061
Conditions at: KSLC (SALT LAKE CITY , UT, US) observed 1054 UTC 24 August 2019
Temperature: 18.9°C (66°F)
Dewpoint: 6.1°C (43°F) [RH = 43%]
Pressure (altimeter): 29.99 inches Hg (1015.7 mb)
[Sea-level pressure: 1010.1 mb]
Winds: from the SE (130 degrees) at 8 MPH (7 knots; 3.6 m/s)
Visibility: 10 or more miles (16+ km)
Ceiling: at least 12,000 feet AGL
Clouds: sky clear below 12,000 feet AGL
Weather: no significant weather observed at this time

METAR text: KSLC 240954Z 15003KT 10SM CLR 19/06 A3000 RMK AO2 SLP102 T01890061
Conditions at: KSLC (SALT LAKE CITY , UT, US) observed 0954 UTC 24 August 2019
Temperature: 18.9°C (66°F)
Dewpoint: 6.1°C (43°F) [RH = 43%]
Pressure (altimeter): 30.00 inches Hg (1016.0 mb)
[Sea-level pressure: 1010.2 mb]
Winds: from the SSE (150 degrees) at 3 MPH (3 knots; 1.5 m/s)
Visibility: 10 or more miles (16+ km)
Ceiling: at least 12,000 feet AGL
Clouds: sky clear below 12,000 feet AGL
Weather: no significant weather observed at this time

METAR text: KSLC 240854Z 14004KT 10SM CLR 20/04 A2999 RMK AO2 SLP099 T02000044 53003
Conditions at: KSLC (SALT LAKE CITY , UT, US) observed 0854 UTC 24 August 2019
Temperature: 20.0°C (68°F)
Dewpoint: 4.4°C (40°F) [RH = 36%]
Pressure (altimeter): 29.99 inches Hg (1015.7 mb)
[Sea-level pressure: 1009.9 mb]
Winds: from the SE (140 degrees) at 5 MPH (4 knots; 2.1 m/s)
Visibility: 10 or more miles (16+ km)
Ceiling: at least 12,000 feet AGL
Clouds: sky clear below 12,000 feet AGL
Weather: no significant weather observed at this time

METAR text: KSLC 240754Z 14007KT 10SM CLR 21/04 A2998 RMK AO2 SLP095 T02110044
Conditions at: KSLC (SALT LAKE CITY , UT, US) observed 0754 UTC 24 August 2019
Temperature: 21.1°C (70°F)
Dewpoint: 4.4°C (40°F) [RH = 33%]
Pressure (altimeter): 29.98 inches Hg (1015.3 mb)
[Sea-level pressure: 1009.5 mb]
Winds: from the SE (140 degrees) at 8 MPH (7 knots; 3.6 m/s)
Visibility: 10 or more miles (16+ km)
Ceiling: at least 12,000 feet AGL
Clouds: sky clear below 12,000 feet AGL
Weather: no significant weather observed at this time

METAR text: KSLC 240654Z 15005KT 10SM CLR 21/06 A2998 RMK AO2 SLP098 T02110056 403000161
Conditions at: KSLC (SALT LAKE CITY , UT, US) observed 0654 UTC 24 August 2019
Temperature: 21.1°C (70°F)
Dewpoint: 5.6°C (42°F) [RH = 36%]
Pressure (altimeter): 29.98 inches Hg (1015.3 mb)
[Sea-level pressure: 1009.8 mb]
Winds: from the SSE (150 degrees) at 6 MPH (5 knots; 2.6 m/s)
Visibility: 10 or more miles (16+ km)
Ceiling: at least 12,000 feet AGL
Clouds: sky clear below 12,000 feet AGL
Weather: no significant weather observed at this time

METAR text: KSLC 240554Z 17005KT 10SM CLR 22/06 A2998 RMK AO2 SLP098 T02170061 10300 20217 51008
Conditions at: KSLC (SALT LAKE CITY , UT, US) observed 0554 UTC 24 August 2019
Temperature: 21.7°C (71°F)
Dewpoint: 6.1°C (43°F) [RH = 36%]
Pressure (altimeter): 29.98 inches Hg (1015.3 mb)
[Sea-level pressure: 1009.8 mb]
Winds: from the S (170 degrees) at 6 MPH (5 knots; 2.6 m/s)
Visibility: 10 or more miles (16+ km)
Ceiling: at least 12,000 feet AGL
Clouds: sky clear below 12,000 feet AGL
Weather: no significant weather observed at this time

METAR text: KSLC 240454Z 00000KT 10SM CLR 23/07 A2997 RMK AO2 SLP094 T02280067
Conditions at: KSLC (SALT LAKE CITY , UT, US) observed 0454 UTC 24 August 2019
Temperature: 22.8°C (73°F)
Dewpoint: 6.7°C (44°F) [RH = 35%]
Pressure (altimeter): 29.97 inches Hg (1015.0 mb)
[Sea-level pressure: 1009.4 mb]
Winds: calm
Visibility: 10 or more miles (16+ km)
Ceiling: at least 12,000 feet AGL
Clouds: sky clear below 12,000 feet AGL
Weather: no significant weather observed at this time

METAR text: KSLC 240354Z 00000KT 10SM FEW120 24/07 A2997 RMK AO2 SLP094 T02440067
Conditions at: KSLC (SALT LAKE CITY , UT, US) observed 0354 UTC 24 August 2019
Temperature: 24.4°C (76°F)
Dewpoint: 6.7°C (44°F) [RH = 32%]
Pressure (altimeter): 29.97 inches Hg (1015.0 mb)
[Sea-level pressure: 1009.4 mb]
Winds: calm
Visibility: 10 or more miles (16+ km)
Ceiling: at least 12,000 feet AGL
Clouds: few clouds at 12000 feet AGL
Weather: no significant weather observed at this time

METAR text: KSLC 240254Z 35007KT 10SM FEW110 FEW250 24/04 A2995 RMK AO2 SLP091 T02440044 55000
Conditions at: KSLC (SALT LAKE CITY , UT, US) observed 0254 UTC 24 August 2019
Temperature: 24.4°C (76°F)
Dewpoint: 4.4°C (40°F) [RH = 27%]
Pressure (altimeter): 29.95 inches Hg (1014.3 mb)
[Sea-level pressure: 1009.1 mb]
Winds: from the N (350 degrees) at 8 MPH (7 knots; 3.6 m/s)
Visibility: 10 or more miles (16+ km)
Ceiling: at least 12,000 feet AGL
Clouds: few clouds at 11000 feet AGL
few clouds at 25000 feet AGL
Weather: no significant weather observed at this time

METAR text: KSLC 240154Z 35005KT 10SM FEW100 FEW180 SCT250 28/04 A2994 RMK AO2 SLP086 ACSL DSNT E T02780039
Conditions at: KSLC (SALT LAKE CITY , UT, US) observed 0154 UTC 24 August 2019
Temperature: 27.8°C (82°F)
Dewpoint: 3.9°C (39°F) [RH = 22%]
Pressure (altimeter): 29.94 inches Hg (1014.0 mb)
[Sea-level pressure: 1008.6 mb]
Winds: from the N (350 degrees) at 6 MPH (5 knots; 2.6 m/s)
Visibility: 10 or more miles (16+ km)
Ceiling: at least 12,000 feet AGL
Clouds: few clouds at 10000 feet AGL
few clouds at 18000 feet AGL
scattered clouds at 25000 feet AGL
Weather: no significant weather observed at this time

METAR text: KSLC 240054Z 35005KT 10SM FEW095 FEW180 SCT250 29/03 A2994 RMK AO2 SLP086 ACSL DSNT NE T02940028
Conditions at: KSLC (SALT LAKE CITY , UT, US) observed 0054 UTC 24 August 2019
Temperature: 29.4°C (85°F)
Dewpoint: 2.8°C (37°F) [RH = 18%]
Pressure (altimeter): 29.94 inches Hg (1014.0 mb)
[Sea-level pressure: 1008.6 mb]
Winds: from the N (350 degrees) at 6 MPH (5 knots; 2.6 m/s)
Visibility: 10 or more miles (16+ km)
Ceiling: at least 12,000 feet AGL
Clouds: few clouds at 9500 feet AGL
few clouds at 18000 feet AGL
scattered clouds at 25000 feet AGL
Weather: no significant weather observed at this time

METAR text: KSLC 232354Z VRB06KT 10SM FEW090 FEW180 SCT250 29/03 A2995 RMK AO2 SLP089 T02940033 10300 20256 56010
Conditions at: KSLC (SALT LAKE CITY , UT, US) observed 2354 UTC 23 August 2019
Temperature: 29.4°C (85°F)
Dewpoint: 3.3°C (38°F) [RH = 19%]
Pressure (altimeter): 29.95 inches Hg (1014.3 mb)
[Sea-level pressure: 1008.9 mb]
Winds: variable direction winds at 7 MPH (6 knots; 3.1 m/s)
Visibility: 10 or more miles (16+ km)
Ceiling: at least 12,000 feet AGL
Clouds: few clouds at 9000 feet AGL
few clouds at 18000 feet AGL
scattered clouds at 25000 feet AGL
Weather: no significant weather observed at this time

METAR text: KSLC 232254Z 34006KT 10SM FEW100 SCT200 BKN250 29/04 A2996 RMK AO2 SLP088 T02940039
Conditions at: KSLC (SALT LAKE CITY , UT, US) observed 2254 UTC 23 August 2019
Temperature: 29.4°C (85°F)
Dewpoint: 3.9°C (39°F) [RH = 20%]
Pressure (altimeter): 29.96 inches Hg (1014.6 mb)
[Sea-level pressure: 1008.8 mb]
Winds: from the NNW (340 degrees) at 7 MPH (6 knots; 3.1 m/s)
Visibility: 10 or more miles (16+ km)
Ceiling: 25000 feet AGL
Clouds: few clouds at 10000 feet AGL
scattered clouds at 20000 feet AGL
broken clouds at 25000 feet AGL
Weather: no significant weather observed at this time

METAR text: KSLC 232154Z 32007KT 10SM FEW095 SCT200 SCT250 29/03 A2997 RMK AO2 SLP089 T02940033
Conditions at: KSLC (SALT LAKE CITY , UT, US) observed 2154 UTC 23 August 2019
Temperature: 29.4°C (85°F)
Dewpoint: 3.3°C (38°F) [RH = 19%]
Pressure (altimeter): 29.97 inches Hg (1015.0 mb)
[Sea-level pressure: 1008.9 mb]
Winds: from the NW (320 degrees) at 8 MPH (7 knots; 3.6 m/s)
Visibility: 10 or more miles (16+ km)
Ceiling: at least 12,000 feet AGL
Clouds: few clouds at 9500 feet AGL
scattered clouds at 20000 feet AGL
scattered clouds at 25000 feet AGL
Weather: no significant weather observed at this time

METAR text: KSLC 232054Z 32008KT 10SM FEW090 FEW180 29/02 A2999 RMK AO2 SLP096 ACSL DSNT SW-W AND NW T02890022 56012
Conditions at: KSLC (SALT LAKE CITY , UT, US) observed 2054 UTC 23 August 2019
Temperature: 28.9°C (84°F)
Dewpoint: 2.2°C (36°F) [RH = 18%]
Pressure (altimeter): 29.99 inches Hg (1015.7 mb)
[Sea-level pressure: 1009.6 mb]
Winds: from the NW (320 degrees) at 9 MPH (8 knots; 4.1 m/s)
Visibility: 10 or more miles (16+ km)
Ceiling: at least 12,000 feet AGL
Clouds: few clouds at 9000 feet AGL
few clouds at 18000 feet AGL
Weather: no significant weather observed at this time

METAR text: KSLC 231954Z 31009KT 10SM FEW085 FEW110 FEW200 28/04 A3000 RMK AO2 SLP102 ACSL DSNT E T02830039
Conditions at: KSLC (SALT LAKE CITY , UT, US) observed 1954 UTC 23 August 2019
Temperature: 28.3°C (83°F)
Dewpoint: 3.9°C (39°F) [RH = 21%]
Pressure (altimeter): 30.00 inches Hg (1016.0 mb)
[Sea-level pressure: 1010.2 mb]
Winds: from the NW (310 degrees) at 10 MPH (9 knots; 4.6 m/s)
Visibility: 10 or more miles (16+ km)
Ceiling: at least 12,000 feet AGL
Clouds: few clouds at 8500 feet AGL
few clouds at 11000 feet AGL
few clouds at 20000 feet AGL
Weather: no significant weather observed at this time

METAR text: KSLC 231854Z 25008KT 10SM FEW085 FEW200 27/03 A3001 RMK AO2 SLP107 T02670033
Conditions at: KSLC (SALT LAKE CITY , UT, US) observed 1854 UTC 23 August 2019
Temperature: 26.7°C (80°F)
Dewpoint: 3.3°C (38°F) [RH = 22%]
Pressure (altimeter): 30.01 inches Hg (1016.3 mb)
[Sea-level pressure: 1010.7 mb]
Winds: from the WSW (250 degrees) at 9 MPH (8 knots; 4.1 m/s)
Visibility: 10 or more miles (16+ km)
Ceiling: at least 12,000 feet AGL
Clouds: few clouds at 8500 feet AGL
few clouds at 20000 feet AGL
Weather: no significant weather observed at this time

METAR text: KSLC 231754Z VRB04KT 10SM FEW090 FEW200 26/03 A3002 RMK AO2 SLP112 T02560033 10261 20161 51004
Conditions at: KSLC (SALT LAKE CITY , UT, US) observed 1754 UTC 23 August 2019
Temperature: 25.6°C (78°F)
Dewpoint: 3.3°C (38°F) [RH = 24%]
Pressure (altimeter): 30.02 inches Hg (1016.7 mb)
[Sea-level pressure: 1011.2 mb]
Winds: variable direction winds at 5 MPH (4 knots; 2.1 m/s)
Visibility: 10 or more miles (16+ km)
Ceiling: at least 12,000 feet AGL
Clouds: few clouds at 9000 feet AGL
few clouds at 20000 feet AGL
Weather: no significant weather observed at this time

METAR text: KSLC 231654Z VRB05KT 10SM FEW090 FEW200 24/02 A3002 RMK AO2 SLP113 T02440022
Conditions at: KSLC (SALT LAKE CITY , UT, US) observed 1654 UTC 23 August 2019
Temperature: 24.4°C (76°F)
Dewpoint: 2.2°C (36°F) [RH = 23%]
Pressure (altimeter): 30.02 inches Hg (1016.7 mb)
[Sea-level pressure: 1011.3 mb]
Winds: variable direction winds at 6 MPH (5 knots; 2.6 m/s)
Visibility: 10 or more miles (16+ km)
Ceiling: at least 12,000 feet AGL
Clouds: few clouds at 9000 feet AGL
few clouds at 20000 feet AGL
Weather: no significant weather observed at this time

METAR text: KSLC 231554Z 00000KT 10SM FEW200 23/03 A3002 RMK AO2 SLP112 T02330033
Conditions at: KSLC (SALT LAKE CITY , UT, US) observed 1554 UTC 23 August 2019
Temperature: 23.3°C (74°F)
Dewpoint: 3.3°C (38°F) [RH = 27%]
Pressure (altimeter): 30.02 inches Hg (1016.7 mb)
[Sea-level pressure: 1011.2 mb]
Winds: calm
Visibility: 10 or more miles (16+ km)
Ceiling: at least 12,000 feet AGL
Clouds: few clouds at 20000 feet AGL
Weather: no significant weather observed at this time

METAR text: KSLC 231454Z 00000KT 10SM CLR 21/03 A3001 RMK AO2 SLP110 T02110028 52012
Conditions at: KSLC (SALT LAKE CITY , UT, US) observed 1454 UTC 23 August 2019
Temperature: 21.1°C (70°F)
Dewpoint: 2.8°C (37°F) [RH = 30%]
Pressure (altimeter): 30.01 inches Hg (1016.3 mb)
[Sea-level pressure: 1011.0 mb]
Winds: calm
Visibility: 10 or more miles (16+ km)
Ceiling: at least 12,000 feet AGL
Clouds: sky clear below 12,000 feet AGL
Weather: no significant weather observed at this time

METAR text: KSLC 231354Z 00000KT 10SM FEW130 18/03 A3000 RMK AO2 SLP105 T01830033
Conditions at: KSLC (SALT LAKE CITY , UT, US) observed 1354 UTC 23 August 2019
Temperature: 18.3°C (65°F)
Dewpoint: 3.3°C (38°F) [RH = 37%]
Pressure (altimeter): 30.00 inches Hg (1016.0 mb)
[Sea-level pressure: 1010.5 mb]
Winds: calm
Visibility: 10 or more miles (16+ km)
Ceiling: at least 12,000 feet AGL
Clouds: few clouds at 13000 feet AGL
Weather: no significant weather observed at this time

METAR text: KSLC 231254Z 00000KT 10SM FEW120 17/04 A2998 RMK AO2 SLP100 T01670044
Conditions at: KSLC (SALT LAKE CITY , UT, US) observed 1254 UTC 23 August 2019
Temperature: 16.7°C (62°F)
Dewpoint: 4.4°C (40°F) [RH = 44%]
Pressure (altimeter): 29.98 inches Hg (1015.3 mb)
[Sea-level pressure: 1010.0 mb]
Winds: calm
Visibility: 10 or more miles (16+ km)
Ceiling: at least 12,000 feet AGL
Clouds: few clouds at 12000 feet AGL
Weather: no significant weather observed at this time

METAR text: KSLC 231154Z 32004KT 10SM FEW130 FEW170 18/02 A2997 RMK AO2 SLP093 T01830022 10228 20183 51013
Conditions at: KSLC (SALT LAKE CITY , UT, US) observed 1154 UTC 23 August 2019
Temperature: 18.3°C (65°F)
Dewpoint: 2.2°C (36°F) [RH = 34%]
Pressure (altimeter): 29.97 inches Hg (1015.0 mb)
[Sea-level pressure: 1009.3 mb]
Winds: from the NW (320 degrees) at 5 MPH (4 knots; 2.1 m/s)
Visibility: 10 or more miles (16+ km)
Ceiling: at least 12,000 feet AGL
Clouds: few clouds at 13000 feet AGL
few clouds at 17000 feet AGL
Weather: no significant weather observed at this time

METAR text: KSLC 231054Z 36008KT 10SM SCT130 SCT170 20/01 A2996 RMK AO2 SLP087 T02000011
Conditions at: KSLC (SALT LAKE CITY , UT, US) observed 1054 UTC 23 August 2019
Temperature: 20.0°C (68°F)
Dewpoint: 1.1°C (34°F) [RH = 28%]
Pressure (altimeter): 29.96 inches Hg (1014.6 mb)
[Sea-level pressure: 1008.7 mb]
Winds: from the N (360 degrees) at 9 MPH (8 knots; 4.1 m/s)
Visibility: 10 or more miles (16+ km)
Ceiling: at least 12,000 feet AGL
Clouds: scattered clouds at 13000 feet AGL
scattered clouds at 17000 feet AGL
Weather: no significant weather observed at this time

METAR text: KSLC 230954Z 33006KT 10SM SCT130 SCT170 21/03 A2994 RMK AO2 SLP079 T02110028
Conditions at: KSLC (SALT LAKE CITY , UT, US) observed 0954 UTC 23 August 2019
Temperature: 21.1°C (70°F)
Dewpoint: 2.8°C (37°F) [RH = 30%]
Pressure (altimeter): 29.94 inches Hg (1014.0 mb)
[Sea-level pressure: 1007.9 mb]
Winds: from the NNW (330 degrees) at 7 MPH (6 knots; 3.1 m/s)
Visibility: 10 or more miles (16+ km)
Ceiling: at least 12,000 feet AGL
Clouds: scattered clouds at 13000 feet AGL
scattered clouds at 17000 feet AGL
Weather: no significant weather observed at this time

METAR text: KSLC 230854Z 33007KT 10SM FEW130 SCT170 22/03 A2993 RMK AO2 SLP072 T02170028 53015
Conditions at: KSLC (SALT LAKE CITY , UT, US) observed 0854 UTC 23 August 2019
Temperature: 21.7°C (71°F)
Dewpoint: 2.8°C (37°F) [RH = 29%]
Pressure (altimeter): 29.93 inches Hg (1013.6 mb)
[Sea-level pressure: 1007.2 mb]
Winds: from the NNW (330 degrees) at 8 MPH (7 knots; 3.6 m/s)
Visibility: 10 or more miles (16+ km)
Ceiling: at least 12,000 feet AGL
Clouds: few clouds at 13000 feet AGL
scattered clouds at 17000 feet AGL
Weather: no significant weather observed at this time

METAR text: KSLC 230754Z 31008KT 10SM SCT130 SCT170 22/04 A2991 RMK AO2 SLP067 T02170039
Conditions at: KSLC (SALT LAKE CITY , UT, US) observed 0754 UTC 23 August 2019
Temperature: 21.7°C (71°F)
Dewpoint: 3.9°C (39°F) [RH = 31%]
Pressure (altimeter): 29.91 inches Hg (1013.0 mb)
[Sea-level pressure: 1006.7 mb]
Winds: from the NW (310 degrees) at 9 MPH (8 knots; 4.1 m/s)
Visibility: 10 or more miles (16+ km)
Ceiling: at least 12,000 feet AGL
Clouds: scattered clouds at 13000 feet AGL
scattered clouds at 17000 feet AGL
Weather: no significant weather observed at this time

METAR text: KSLC 230654Z 32008KT 10SM FEW110 SCT170 22/07 A2989 RMK AO2 SLP060 T02220067 403390206
Conditions at: KSLC (SALT LAKE CITY , UT, US) observed 0654 UTC 23 August 2019
Temperature: 22.2°C (72°F)
Dewpoint: 6.7°C (44°F) [RH = 37%]
Pressure (altimeter): 29.89 inches Hg (1012.3 mb)
[Sea-level pressure: 1006.0 mb]
Winds: from the NW (320 degrees) at 9 MPH (8 knots; 4.1 m/s)
Visibility: 10 or more miles (16+ km)
Ceiling: at least 12,000 feet AGL
Clouds: few clouds at 11000 feet AGL
scattered clouds at 17000 feet AGL
Weather: no significant weather observed at this time

METAR text: KSLC 230554Z 33011KT 10SM FEW110 SCT170 23/08 A2988 RMK AO2 SLP053 T02280083 10311 20228 51015
Conditions at: KSLC (SALT LAKE CITY , UT, US) observed 0554 UTC 23 August 2019
Temperature: 22.8°C (73°F)
Dewpoint: 8.3°C (47°F) [RH = 39%]
Pressure (altimeter): 29.88 inches Hg (1011.9 mb)
[Sea-level pressure: 1005.3 mb]
Winds: from the NNW (330 degrees) at 13 MPH (11 knots; 5.7 m/s)
Visibility: 10 or more miles (16+ km)
Ceiling: at least 12,000 feet AGL
Clouds: few clouds at 11000 feet AGL
scattered clouds at 17000 feet AGL
Weather: no significant weather observed at this time

METAR text: KSLC 230454Z 36007KT 10SM FEW110 SCT170 23/09 A2986 RMK AO2 SLP049 T02280094
Conditions at: KSLC (SALT LAKE CITY , UT, US) observed 0454 UTC 23 August 2019
Temperature: 22.8°C (73°F)
Dewpoint: 9.4°C (49°F) [RH = 42%]
Pressure (altimeter): 29.86 inches Hg (1011.3 mb)
[Sea-level pressure: 1004.9 mb]
Winds: from the N (360 degrees) at 8 MPH (7 knots; 3.6 m/s)
Visibility: 10 or more miles (16+ km)
Ceiling: at least 12,000 feet AGL
Clouds: few clouds at 11000 feet AGL
scattered clouds at 17000 feet AGL
Weather: no significant weather observed at this time

METAR text: KSLC 230354Z 27005KT 10SM FEW110 FEW160 SCT240 24/11 A2984 RMK AO2 SLP046 T02390111
Conditions at: KSLC (SALT LAKE CITY , UT, US) observed 0354 UTC 23 August 2019
Temperature: 23.9°C (75°F)
Dewpoint: 11.1°C (52°F) [RH = 45%]
Pressure (altimeter): 29.84 inches Hg (1010.6 mb)
[Sea-level pressure: 1004.6 mb]
Winds: from the W (270 degrees) at 6 MPH (5 knots; 2.6 m/s)
Visibility: 10 or more miles (16+ km)
Ceiling: at least 12,000 feet AGL
Clouds: few clouds at 11000 feet AGL
few clouds at 16000 feet AGL
scattered clouds at 24000 feet AGL
Weather: no significant weather observed at this time

METAR text: KSLC 230254Z 26005KT 10SM FEW130 SCT160 SCT250 26/09 A2983 RMK AO2 SLP040 T02560094 55000
Conditions at: KSLC (SALT LAKE CITY , UT, US) observed 0254 UTC 23 August 2019
Temperature: 25.6°C (78°F)
Dewpoint: 9.4°C (49°F) [RH = 36%]
Pressure (altimeter): 29.83 inches Hg (1010.2 mb)
[Sea-level pressure: 1004.0 mb]
Winds: from the W (260 degrees) at 6 MPH (5 knots; 2.6 m/s)
Visibility: 10 or more miles (16+ km)
Ceiling: at least 12,000 feet AGL
Clouds: few clouds at 13000 feet AGL
scattered clouds at 16000 feet AGL
scattered clouds at 25000 feet AGL
Weather: no significant weather observed at this time

Forecast for: KSLC (SALT LAKE CITY , UT, US)
Text: KSLC 241120Z 2412/2518 17005KT P6SM SKC
Forecast period: 1200 to 2000 UTC 24 August 2019
Forecast type: FROM: standard forecast or significant change
Winds: from the S (170 degrees) at 6 MPH (5 knots; 2.6 m/s)
Visibility: 6 or more miles 10+ km)
Clouds: clear skies
Weather: no significant weather forecast for this period
Text: FM242000 33010KT P6SM SKC
Forecast period: 2000 UTC 24 August 2019 to 0300 UTC 25 August 2019
Forecast type: FROM: standard forecast or significant change
Winds: from the NNW (330 degrees) at 12 MPH (10 knots; 5.1 m/s)
Visibility: 6 or more miles 10+ km)
Clouds: clear skies
Weather: no significant weather forecast for this period
Text: FM250300 15007KT P6SM SKC
Forecast period: 0300 to 1800 UTC 25 August 2019
Forecast type: FROM: standard forecast or significant change
Winds: from the SSE (150 degrees) at 8 MPH (7 knots; 3.6 m/s)
Visibility: 6 or more miles 10+ km)
Clouds: clear skies
Weather: no significant weather forecast for this period